Time;durP1;ratioP1;P1;durP2;ratioP2;P2;SDS_P1;SDS_P2;PMS_P1;PMS_P2;Temp;Humidity;BMP_temperature;BMP_pressure;BME280_temperature;BME280_humidity;BME280_pressure;Samples;Min_cycle;Max_cycle;Signal;HPM_P1;HPM_P2
2023/03/02 00:01:38;;;;;;;9.03;5.97;;;;;;;-3.14;100.00;102003.16;5063559;28;20041;-80
2023/03/02 00:04:08;;;;;;;8.85;4.90;;;;;;;-3.15;100.00;101994.53;5054537;28;20041;-81
2023/03/02 00:06:36;;;;;;;11.10;6.20;;;;;;;-3.20;100.00;101992.47;5049460;28;20547;-80
2023/03/02 00:09:05;;;;;;;12.57;7.20;;;;;;;-3.20;100.00;102000.22;5034782;28;20500;-80
2023/03/02 00:11:33;;;;;;;13.23;7.50;;;;;;;-3.20;100.00;101997.63;5050299;28;20147;-80
2023/03/02 00:13:59;;;;;;;13.33;7.03;;;;;;;-3.15;100.00;101999.69;5057306;28;20036;-80
2023/03/02 00:16:26;;;;;;;16.90;8.87;;;;;;;-3.11;100.00;102000.78;5039974;28;20049;-80
2023/03/02 00:18:53;;;;;;;18.03;8.57;;;;;;;-3.19;100.00;101995.16;5041750;28;20033;-80
2023/03/02 00:21:22;;;;;;;13.27;7.73;;;;;;;-3.29;100.00;101992.84;5024298;28;20041;-81
2023/03/02 00:23:50;;;;;;;13.50;7.53;;;;;;;-3.29;100.00;101998.00;5054014;28;20040;-80
2023/03/02 00:26:17;;;;;;;14.27;8.20;;;;;;;-3.35;100.00;101991.63;5033440;28;20044;-80
2023/03/02 00:28:44;;;;;;;13.90;8.07;;;;;;;-3.42;100.00;101985.22;5036544;28;20071;-80
2023/03/02 00:31:11;;;;;;;13.37;6.77;;;;;;;-3.45;100.00;101983.34;5018403;28;20060;-81
2023/03/02 00:33:38;;;;;;;12.30;6.97;;;;;;;-3.45;100.00;101983.34;5043904;28;20040;-80
2023/03/02 00:36:05;;;;;;;11.93;7.50;;;;;;;-3.47;100.00;101981.47;5034076;28;20407;-80
2023/03/02 00:38:32;;;;;;;14.83;7.70;;;;;;;-3.44;100.00;101986.81;5043778;28;20071;-80
2023/03/02 00:40:58;;;;;;;16.93;8.63;;;;;;;-3.45;100.00;101979.84;5035490;28;20036;-79
2023/03/02 00:43:26;;;;;;;15.87;8.40;;;;;;;-3.39;100.00;101975.03;5042785;28;20043;-82
2023/03/02 00:45:55;;;;;;;21.57;9.63;;;;;;;-3.39;100.00;101972.47;5040531;28;20255;-81
2023/03/02 00:48:26;;;;;;;21.00;10.70;;;;;;;-3.38;100.00;101968.19;5037021;28;20416;-81
2023/03/02 00:50:53;;;;;;;23.13;10.97;;;;;;;-3.24;100.00;101968.16;5037600;28;20513;-79
2023/03/02 00:53:20;;;;;;;19.10;11.13;;;;;;;-3.13;100.00;101958.41;5054039;28;21845;-82
2023/03/02 00:55:56;;;;;;;17.63;9.77;;;;;;;-3.22;100.00;101958.78;5049595;28;20044;-80
2023/03/02 00:58:28;;;;;;;13.77;7.10;;;;;;;-3.38;100.00;101953.56;5033966;28;20042;-81
2023/03/02 01:00:57;;;;;;;11.37;7.03;;;;;;;-3.46;100.00;101962.56;5046716;28;20043;-79
2023/03/02 01:03:24;;;;;;;12.70;7.70;;;;;;;-3.53;100.00;101957.84;5056349;28;20047;-80
2023/03/02 01:05:55;;;;;;;18.43;8.03;;;;;;;-3.56;100.00;101965.44;5025578;28;20052;-80
2023/03/02 01:08:22;;;;;;;12.50;7.13;;;;;;;-3.57;100.00;101963.66;5051150;28;20382;-80
2023/03/02 01:10:49;;;;;;;14.80;7.73;;;;;;;-3.61;100.00;101953.97;5043724;28;20127;-80
2023/03/02 01:13:15;;;;;;;14.50;8.47;;;;;;;-3.62;100.00;101957.34;5030533;28;20032;-80
2023/03/02 01:15:42;;;;;;;16.57;9.30;;;;;;;-3.53;100.00;101956.19;5054019;28;20059;-79
2023/03/02 01:18:09;;;;;;;14.27;7.97;;;;;;;-3.38;100.00;101955.25;5037543;28;20032;-80
2023/03/02 01:20:37;;;;;;;17.40;8.20;;;;;;;-3.31;100.00;101953.09;5035209;28;20037;-81
2023/03/02 01:23:04;;;;;;;14.93;7.70;;;;;;;-3.44;100.00;101948.97;5014980;28;20490;-79
2023/03/02 01:25:30;;;;;;;10.57;6.53;;;;;;;-3.49;100.00;101955.56;5033395;28;20045;-83
2023/03/02 01:27:58;;;;;;;11.27;7.47;;;;;;;-3.59;100.00;101945.50;5030501;28;20071;-79
2023/03/02 01:30:24;;;;;;;14.50;7.43;;;;;;;-3.66;100.00;101945.06;5024065;28;20040;-80
2023/03/02 01:32:51;;;;;;;11.70;6.73;;;;;;;-3.49;100.00;101947.81;5048115;28;20041;-81
2023/03/02 01:35:18;;;;;;;14.80;7.93;;;;;;;-3.48;100.00;101939.25;5011557;28;20049;-79
2023/03/02 01:37:44;;;;;;;13.63;7.80;;;;;;;-3.50;100.00;101942.56;5148077;23;20033;-79
2023/03/02 01:40:12;;;;;;;14.60;7.80;;;;;;;-3.63;100.00;101943.53;5069980;28;20066;-80
2023/03/02 01:42:45;;;;;;;16.77;9.23;;;;;;;-3.70;100.00;101938.81;5084454;28;20032;-81
2023/03/02 01:45:43;;;;;;;14.50;7.20;;;;;;;-3.76;100.00;101941.06;5035280;28;20036;-81
2023/03/02 01:48:11;;;;;;;15.37;6.90;;;;;;;-3.77;100.00;101947.03;5054350;28;20045;-80
2023/03/02 01:50:38;;;;;;;13.27;6.57;;;;;;;-3.69;100.00;101938.94;5048221;28;20409;-82
2023/03/02 01:53:06;;;;;;;13.93;6.30;;;;;;;-3.60;100.00;101940.25;5060451;28;20431;-81
2023/03/02 01:55:34;;;;;;;9.83;6.83;;;;;;;-3.42;100.00;101931.84;5040637;28;20418;-82
2023/03/02 01:58:01;;;;;;;13.40;6.40;;;;;;;-3.35;100.00;101930.50;5035331;28;20040;-82
2023/03/02 02:00:31;;;;;;;10.57;5.70;;;;;;;-3.28;100.00;101926.53;5037091;28;20036;-82
2023/03/02 02:03:10;;;;;;;14.23;7.37;;;;;;;-3.19;100.00;101920.22;5069957;28;20112;-82
2023/03/02 02:05:39;;;;;;;10.13;5.77;;;;;;;-3.32;100.00;101922.91;5056008;28;20063;-83
2023/03/02 02:08:06;;;;;;;11.37;6.60;;;;;;;-3.22;100.00;101930.34;5034772;28;20041;-82
2023/03/02 02:10:33;;;;;;;15.37;8.63;;;;;;;-3.08;100.00;101927.66;5026826;28;20497;-82
2023/03/02 02:13:00;;;;;;;15.77;8.77;;;;;;;-3.06;100.00;101921.75;5027458;28;20048;-82
2023/03/02 02:15:27;;;;;;;25.00;12.90;;;;;;;-3.04;100.00;101925.31;5044024;28;20056;-82
2023/03/02 02:17:54;;;;;;;19.40;9.50;;;;;;;-3.01;100.00;101912.56;5039657;28;20439;-82
2023/03/02 02:20:33;;;;;;;43.30;14.53;;;;;;;-3.02;100.00;101915.97;5044906;28;20140;-82
2023/03/02 02:23:14;;;;;;;36.63;17.00;;;;;;;-2.83;100.00;101912.66;5044697;28;20047;-82
2023/03/02 02:25:51;;;;;;;35.73;15.60;;;;;;;-2.91;100.00;101920.00;5060232;28;20120;-82
2023/03/02 02:28:21;;;;;;;35.37;17.00;;;;;;;-2.95;100.00;101914.56;5095130;28;20040;-83
2023/03/02 02:31:01;;;;;;;40.67;19.13;;;;;;;-2.88;100.00;101914.09;5047260;28;20051;-83
2023/03/02 02:33:27;;;;;;;32.60;17.10;;;;;;;-2.93;100.00;101916.47;5043962;28;20456;-82
2023/03/02 02:35:59;;;;;;;33.70;17.57;;;;;;;-2.88;100.00;101912.41;5062656;28;20124;-83
2023/03/02 02:38:25;;;;;;;37.03;18.27;;;;;;;-2.90;100.00;101902.78;5045907;28;20068;-83
2023/03/02 02:40:54;;;;;;;32.60;18.20;;;;;;;-2.78;100.00;101910.31;5046315;28;20040;-82
2023/03/02 02:43:22;;;;;;;34.60;18.20;;;;;;;-2.96;100.00;101902.47;5047666;28;20048;-83
2023/03/02 02:45:51;;;;;;;35.40;17.57;;;;;;;-2.93;100.00;101900.94;5047702;28;20036;-82
2023/03/02 02:48:21;;;;;;;40.57;19.47;;;;;;;-2.98;100.00;101915.31;5063374;28;20040;-84
2023/03/02 02:50:49;;;;;;;32.23;16.93;;;;;;;-2.75;100.00;101908.78;5043497;28;20048;-83
2023/03/02 02:53:19;;;;;;;38.27;19.10;;;;;;;-2.72;100.00;101906.34;5028447;28;20409;-83
2023/03/02 02:55:47;;;;;;;36.00;18.67;;;;;;;-2.76;100.00;101904.44;5059443;28;20043;-82
2023/03/02 02:58:23;;;;;;;32.33;16.67;;;;;;;-2.75;100.00;101902.72;5064356;28;20040;-82
2023/03/02 03:00:52;;;;;;;32.20;17.73;;;;;;;-2.75;100.00;101900.16;5063999;28;20052;-82
2023/03/02 03:03:28;;;;;;;37.00;17.17;;;;;;;-2.66;100.00;101898.03;5046348;28;20032;-83
2023/03/02 03:05:56;;;;;;;34.63;17.53;;;;;;;-2.59;100.00;101895.88;5069479;28;20036;-82
2023/03/02 03:08:42;;;;;;;37.10;17.33;;;;;;;-2.63;100.00;101905.94;5062423;28;20033;-83
2023/03/02 03:11:13;;;;;;;34.67;17.43;;;;;;;-2.61;100.00;101906.91;5078947;28;20514;-82
2023/03/02 03:13:42;;;;;;;42.13;19.00;;;;;;;-2.64;100.00;101901.59;5080850;28;20040;-82
2023/03/02 03:16:10;;;;;;;36.07;17.93;;;;;;;-2.67;100.00;101896.28;5062123;28;20036;-82
2023/03/02 03:18:37;;;;;;;42.50;17.17;;;;;;;-2.59;100.00;101898.44;5045926;28;20040;-82
2023/03/02 03:21:04;;;;;;;38.23;18.10;;;;;;;-2.53;100.00;101897.84;5042492;28;20040;-82
2023/03/02 03:23:31;;;;;;;42.77;18.67;;;;;;;-2.56;100.00;101892.53;5045383;28;20041;-81
2023/03/02 03:25:58;;;;;;;38.33;17.23;;;;;;;-2.64;100.00;101901.59;5068716;28;20408;-82
2023/03/02 03:28:27;;;;;;;34.57;19.17;;;;;;;-2.51;100.00;101905.72;5044431;28;20454;-81
2023/03/02 03:30:55;;;;;;;39.73;19.13;;;;;;;-2.49;100.00;101915.34;5044647;28;20388;-81
2023/03/02 03:33:21;;;;;;;40.77;18.00;;;;;;;-2.49;100.00;101914.44;5063758;28;20094;-81
2023/03/02 03:35:48;;;;;;;42.47;18.63;;;;;;;-2.63;100.00;101917.19;5044891;28;20040;-81
2023/03/02 03:38:15;;;;;;;36.70;17.63;;;;;;;-2.59;100.00;101918.25;5062959;28;20041;-82
2023/03/02 03:40:42;;;;;;;53.13;20.27;;;;;;;-2.56;100.00;101927.06;5062091;28;20130;-81
2023/03/02 03:43:11;;;;;;;43.47;20.13;;;;;;;-2.45;100.00;101926.72;5076425;28;20115;-82
2023/03/02 03:45:38;;;;;;;43.07;21.30;;;;;;;-2.38;100.00;101921.06;5057347;28;20036;-81
2023/03/02 03:48:04;;;;;;;44.37;20.03;;;;;;;-2.30;100.00;101922.34;5055203;28;20048;-81
2023/03/02 03:50:31;;;;;;;36.83;18.70;;;;;;;-2.36;100.00;101916.84;5039588;28;20048;-82
2023/03/02 03:52:58;;;;;;;43.27;19.20;;;;;;;-2.43;100.00;101912.19;5075067;28;20039;-81
2023/03/02 03:55:27;;;;;;;41.20;17.97;;;;;;;-2.48;100.00;101908.47;5057774;28;20043;-82
2023/03/02 03:57:54;;;;;;;42.30;18.73;;;;;;;-2.39;100.00;101903.75;5047561;28;20036;-82
2023/03/02 04:00:21;;;;;;;41.03;18.40;;;;;;;-2.34;100.00;101908.38;5069886;28;20647;-81
2023/03/02 04:02:49;;;;;;;36.07;17.93;;;;;;;-2.37;100.00;101917.66;5057681;28;20094;-81
2023/03/02 04:05:16;;;;;;;36.13;18.17;;;;;;;-2.38;100.00;101913.31;5060368;28;20446;-81
2023/03/02 04:07:43;;;;;;;37.00;18.53;;;;;;;-2.41;100.00;101916.63;5060816;28;20040;-81
2023/03/02 04:10:11;;;;;;;39.73;17.93;;;;;;;-2.22;100.00;101915.88;5061141;28;20059;-81
2023/03/02 04:12:39;;;;;;;41.83;19.43;;;;;;;-2.20;100.00;101906.47;5043890;28;20040;-81
2023/03/02 04:15:08;;;;;;;39.10;17.63;;;;;;;-2.14;100.00;101911.09;5057107;28;20051;-81
2023/03/02 04:17:35;;;;;;;37.70;17.73;;;;;;;-2.33;100.00;101917.91;5059513;28;20040;-81
2023/03/02 04:20:06;;;;;;;37.47;16.70;;;;;;;-2.25;100.00;101917.44;5043029;28;20546;-82
2023/03/02 04:22:33;;;;;;;31.70;16.37;;;;;;;-2.29;100.00;101916.34;5073494;28;20041;-81
2023/03/02 04:24:59;;;;;;;33.40;17.47;;;;;;;-2.37;100.00;101915.06;5039663;28;20048;-82
2023/03/02 04:27:26;;;;;;;37.87;17.73;;;;;;;-2.34;100.00;101912.66;5043386;28;20040;-82
2023/03/02 04:29:53;;;;;;;36.80;17.03;;;;;;;-2.32;100.00;101914.50;5059696;28;20036;-82
2023/03/02 04:32:19;;;;;;;35.80;17.60;;;;;;;-2.20;100.00;101916.81;5043892;28;20044;-81
2023/03/02 04:34:46;;;;;;;39.27;17.47;;;;;;;-2.20;100.00;101916.81;5043704;28;20046;-82
2023/03/02 04:37:14;;;;;;;37.70;18.20;;;;;;;-2.39;100.00;101924.47;5042211;28;20044;-82
2023/03/02 04:39:42;;;;;;;33.83;16.63;;;;;;;-2.37;100.00;101926.31;5059779;28;20070;-82
2023/03/02 04:42:08;;;;;;;32.30;16.63;;;;;;;-2.12;100.00;101923.28;5074708;28;20028;-82
2023/03/02 04:44:35;;;;;;;35.93;17.00;;;;;;;-2.17;100.00;101929.06;5042933;28;20044;-81
2023/03/02 04:47:01;;;;;;;34.20;17.37;;;;;;;-2.13;100.00;101929.28;5041231;28;20555;-82
2023/03/02 04:49:28;;;;;;;30.33;15.70;;;;;;;-2.20;100.00;101924.59;5071575;28;20044;-82
2023/03/02 04:51:55;;;;;;;35.50;17.67;;;;;;;-2.19;100.00;101918.59;5032237;28;20117;-83
2023/03/02 04:54:24;;;;;;;33.03;16.87;;;;;;;-2.28;100.00;101924.19;5050877;28;20044;-81
2023/03/02 04:56:52;;;;;;;31.90;16.73;;;;;;;-2.09;100.00;101923.47;5058839;28;20147;-83
2023/03/02 04:59:22;;;;;;;31.87;15.27;;;;;;;-2.05;100.00;101924.50;5058413;28;20047;-81
2023/03/02 05:01:49;;;;;;;30.00;15.63;;;;;;;-2.15;100.00;101923.13;5053518;28;20535;-82
2023/03/02 05:04:16;;;;;;;31.70;15.40;;;;;;;-2.27;100.00;101922.50;5058024;28;20538;-83
2023/03/02 05:06:45;;;;;;;32.47;17.17;;;;;;;-2.20;100.00;101923.72;5052752;28;20127;-82
2023/03/02 05:09:12;;;;;;;35.43;17.03;;;;;;;-2.23;100.00;101921.84;5054855;28;20028;-83
2023/03/02 05:11:39;;;;;;;32.80;17.07;;;;;;;-2.29;100.00;101918.94;5042321;28;20048;-82
2023/03/02 05:14:09;;;;;;;36.47;17.10;;;;;;;-2.25;100.00;101917.44;5048348;28;20040;-81
2023/03/02 05:16:37;;;;;;;35.47;16.67;;;;;;;-2.02;100.00;101919.47;5039102;28;20040;-82
2023/03/02 05:19:05;;;;;;;29.13;14.63;;;;;;;-1.92;100.00;101918.25;5043509;28;20036;-81
2023/03/02 05:21:32;;;;;;;30.93;16.67;;;;;;;-2.01;100.00;101916.09;5050968;28;20562;-82
2023/03/02 05:23:59;;;;;;;28.83;15.40;;;;;;;-2.27;100.00;101918.25;5040188;28;20131;-82
2023/03/02 05:26:27;;;;;;;33.10;15.57;;;;;;;-2.12;100.00;101912.03;5040257;28;20523;-81
2023/03/02 05:28:54;;;;;;;32.93;15.77;;;;;;;-2.09;100.00;101918.28;5043150;28;20036;-81
2023/03/02 05:31:25;;;;;;;31.53;15.80;;;;;;;-2.23;100.00;101920.97;5060088;28;20047;-81
2023/03/02 05:33:52;;;;;;;30.17;15.57;;;;;;;-2.04;100.00;101918.50;5059391;28;20055;-82
2023/03/02 05:36:19;;;;;;;29.60;15.93;;;;;;;-2.03;100.00;101922.88;5042083;28;20040;-82
2023/03/02 05:38:48;;;;;;;31.33;16.27;;;;;;;-2.00;100.00;101917.84;5039433;28;20032;-82
2023/03/02 05:41:15;;;;;;;31.63;15.27;;;;;;;-2.05;100.00;101921.91;5061901;28;20089;-81
2023/03/02 05:43:42;;;;;;;31.00;15.20;;;;;;;-2.06;100.00;101918.44;5059228;28;20454;-81
2023/03/02 05:46:09;;;;;;;26.63;13.10;;;;;;;-1.98;100.00;101921.41;5056239;28;20048;-81
2023/03/02 05:48:35;;;;;;;28.17;13.93;;;;;;;-1.91;100.00;101914.84;5067862;28;20101;-82
2023/03/02 05:51:02;;;;;;;26.47;13.27;;;;;;;-1.94;100.00;101920.72;5039240;28;20386;-82
2023/03/02 05:53:29;;;;;;;26.53;12.57;;;;;;;-2.01;100.00;101929.03;5052649;28;20044;-80
2023/03/02 05:55:56;;;;;;;21.13;12.40;;;;;;;-2.10;100.00;101925.94;5023228;28;20044;-81
2023/03/02 05:58:23;;;;;;;21.77;11.80;;;;;;;-2.03;100.00;101928.03;5035289;28;20476;-80
2023/03/02 06:00:50;;;;;;;22.87;11.50;;;;;;;-2.07;100.00;101926.13;5076309;28;20040;-81
2023/03/02 06:03:17;;;;;;;22.23;12.00;;;;;;;-1.97;100.00;101925.78;5045358;28;20035;-82
2023/03/02 06:05:43;;;;;;;23.53;11.67;;;;;;;-1.95;100.00;101931.03;5058589;28;20474;-81
2023/03/02 06:08:10;;;;;;;19.70;10.60;;;;;;;-2.08;100.00;101942.47;5058223;28;20483;-81
2023/03/02 06:10:37;;;;;;;15.77;8.57;;;;;;;-2.10;100.00;101939.81;5064518;28;20123;-83
2023/03/02 06:13:04;;;;;;;20.83;9.43;;;;;;;-1.95;100.00;101937.09;5060729;28;20052;-82
2023/03/02 06:15:30;;;;;;;17.30;8.23;;;;;;;-1.89;100.00;101947.75;5061635;28;20055;-81
2023/03/02 06:17:57;;;;;;;14.37;7.87;;;;;;;-2.11;100.00;101950.94;5043625;28;20040;-82
2023/03/02 06:20:24;;;;;;;17.60;7.70;;;;;;;-2.01;100.00;101948.03;5057733;28;20043;-81
2023/03/02 06:22:51;;;;;;;11.60;6.77;;;;;;;-1.97;100.00;101943.91;5066670;28;20051;-83
2023/03/02 06:25:22;;;;;;;12.07;5.57;;;;;;;-2.05;100.00;101950.38;5045057;28;20382;-82
2023/03/02 06:27:52;;;;;;;14.80;6.80;;;;;;;-2.09;100.00;101941.59;5047561;28;20048;-83
2023/03/02 06:30:22;;;;;;;11.47;6.57;;;;;;;-2.11;100.00;101950.94;5021914;28;20064;-82
2023/03/02 06:32:49;;;;;;;11.50;6.17;;;;;;;-2.09;100.00;101944.19;5036639;28;20721;-82
2023/03/02 06:35:16;;;;;;;12.57;6.70;;;;;;;-2.10;100.00;101942.41;5058153;28;20063;-81
2023/03/02 06:37:43;;;;;;;14.30;6.43;;;;;;;-2.09;100.00;101944.19;5055662;28;20048;-82
2023/03/02 06:40:12;;;;;;;15.53;6.53;;;;;;;-1.96;100.00;101948.25;5039852;28;20049;-82
2023/03/02 06:42:40;;;;;;;13.57;6.47;;;;;;;-2.09;100.00;101943.28;5038433;28;20068;-82
2023/03/02 06:45:08;;;;;;;14.57;6.53;;;;;;;-2.10;100.00;101944.06;5038973;28;20043;-82
2023/03/02 06:47:35;;;;;;;13.97;6.77;;;;;;;-1.93;100.00;101942.34;5030143;28;20048;-81
2023/03/02 06:50:02;;;;;;;10.60;6.13;;;;;;;-2.15;100.00;101950.72;5027797;28;20040;-83
2023/03/02 06:52:29;;;;;;;15.27;6.50;;;;;;;-2.00;100.00;101949.81;5041764;28;20067;-81
2023/03/02 06:54:56;;;;;;;13.30;6.83;;;;;;;-1.96;100.00;101945.66;5047526;28;20082;-82
2023/03/02 06:57:22;;;;;;;11.47;5.67;;;;;;;-1.81;100.00;101953.34;5028293;28;20135;-82
2023/03/02 06:59:49;;;;;;;12.80;6.63;;;;;;;-1.75;100.00;101941.59;5044756;28;20043;-82
2023/03/02 07:02:16;;;;;;;11.43;5.97;;;;;;;-1.89;100.00;101944.28;5066708;28;20040;-81
2023/03/02 07:04:42;;;;;;;12.30;6.37;;;;;;;-1.90;100.00;101943.41;5060612;28;20044;-81
2023/03/02 07:07:12;;;;;;;12.70;6.30;;;;;;;-1.97;100.00;101938.72;5049918;28;20061;-81
2023/03/02 07:09:38;;;;;;;13.57;6.10;;;;;;;-1.77;100.00;101944.88;5061078;28;20083;-81
2023/03/02 07:12:05;;;;;;;13.07;6.33;;;;;;;-1.74;100.00;101938.19;5034091;28;20045;-81
2023/03/02 07:14:34;;;;;;;13.87;5.90;;;;;;;-1.71;100.00;101934.84;5041900;28;20052;-82
2023/03/02 07:17:03;;;;;;;15.40;6.70;;;;;;;-1.68;100.00;101944.44;5040637;28;20047;-80
2023/03/02 07:19:30;;;;;;;15.07;6.87;;;;;;;-1.54;100.00;101941.75;5058273;28;20058;-81
2023/03/02 07:21:57;;;;;;;11.60;5.77;;;;;;;-1.54;100.00;101938.25;5040202;28;20060;-81
2023/03/02 07:24:24;;;;;;;14.27;6.77;;;;;;;-1.51;100.00;101933.25;5057275;28;20032;-81
2023/03/02 07:26:50;;;;;;;15.63;6.07;;;;;;;-1.51;100.00;101931.53;5058717;28;20044;-83
2023/03/02 07:29:17;;;;;;;9.87;5.43;;;;;;;-1.51;100.00;101935.84;5060354;28;20400;-81
2023/03/02 07:31:44;;;;;;;11.90;5.80;;;;;;;-1.53;100.00;101932.25;5063908;28;20036;-81
2023/03/02 07:34:10;;;;;;;10.33;5.43;;;;;;;-1.53;100.00;101929.66;5030852;28;20090;-82
2023/03/02 07:36:37;;;;;;;9.27;4.93;;;;;;;-1.37;100.00;101936.47;5039522;28;20528;-81
2023/03/02 07:39:04;;;;;;;11.10;5.20;;;;;;;-1.29;100.00;101925.66;5054564;28;20463;-80
2023/03/02 07:41:31;;;;;;;12.07;4.87;;;;;;;-1.32;100.00;101930.72;5115190;23;20047;-81
2023/03/02 07:43:58;;;;;;;11.10;5.20;;;;;;;-1.32;100.00;101925.53;5060878;28;20040;-79
2023/03/02 07:46:24;;;;;;;10.13;5.17;;;;;;;-1.35;100.00;101933.13;5079333;28;20457;-79
2023/03/02 07:48:52;;;;;;;11.20;5.27;;;;;;;-1.21;100.00;101939.88;5063632;28;20044;-79
2023/03/02 07:51:19;;;;;;;10.60;5.07;;;;;;;-1.22;100.00;101926.84;5036234;28;20048;-79
2023/03/02 07:53:46;;;;;;;10.23;5.27;;;;;;;-1.42;100.00;101933.69;5052918;28;20040;-79
2023/03/02 07:56:12;;;;;;;11.10;5.27;;;;;;;-1.36;100.00;101930.47;5040839;28;20424;-82
2023/03/02 07:58:39;;;;;;;9.63;4.97;;;;;;;-1.14;100.00;101934.19;5061199;28;20048;-79
2023/03/02 08:01:06;;;;;;;9.43;5.23;;;;;;;-1.22;100.00;101942.41;5089537;28;20039;-79
2023/03/02 08:03:32;;;;;;;7.13;4.30;;;;;;;-1.05;100.00;101932.84;5056970;28;20040;-79
2023/03/02 08:06:09;;;;;;;11.63;4.37;;;;;;;-1.16;100.00;101930.63;5065880;28;20062;-79
2023/03/02 08:08:36;;;;;;;9.87;4.60;;;;;;;-1.37;100.00;101937.38;5061348;28;20032;-80
2023/03/02 08:11:08;;;;;;;9.63;4.33;;;;;;;-1.41;100.00;101932.88;5076475;28;20504;-78
2023/03/02 08:13:35;;;;;;;8.60;4.70;;;;;;;-1.24;100.00;101923.31;5074025;28;20079;-80
2023/03/02 08:16:04;;;;;;;7.60;3.57;;;;;;;-1.10;100.00;101931.72;5066314;28;20531;-80
2023/03/02 08:18:31;;;;;;;8.20;4.27;;;;;;;-0.99;100.00;101930.53;5083183;28;20044;-80
2023/03/02 08:20:58;;;;;;;10.13;4.53;;;;;;;-0.98;100.00;101919.34;5061193;28;20036;-79
2023/03/02 08:23:25;;;;;;;10.20;5.30;;;;;;;-0.89;100.00;101915.47;5064117;28;20040;-80
2023/03/02 08:25:53;;;;;;;7.63;4.43;;;;;;;-0.93;100.00;101921.31;5062974;28;20131;-79
2023/03/02 08:28:21;;;;;;;8.17;4.20;;;;;;;-0.81;100.00;101910.63;5063563;28;20055;-78
2023/03/02 08:30:55;;;;;;;9.07;4.83;;;;;;;-0.83;100.00;101907.06;5077165;28;20032;-79
2023/03/02 08:33:22;;;;;;;8.53;3.93;;;;;;;-0.80;100.00;101903.72;5068573;28;20055;-78
2023/03/02 08:35:59;;;;;;;7.13;4.23;;;;;;;-0.76;100.00;101911.69;5076087;28;20036;-79
2023/03/02 08:38:27;;;;;;;10.77;4.87;;;;;;;-0.73;100.00;101901.47;5068896;28;20048;-79
2023/03/02 08:40:54;;;;;;;8.83;5.10;;;;;;;-0.66;100.00;101905.25;5066694;28;20483;-79
2023/03/02 08:43:22;;;;;;;8.80;5.13;;;;;;;-0.60;100.00;101913.28;5073089;28;20071;-79
2023/03/02 08:45:51;;;;;;;10.80;5.27;;;;;;;-0.75;100.00;101903.13;5050785;28;20121;-78
2023/03/02 08:48:18;;;;;;;7.93;4.40;;;;;;;-0.64;100.00;101904.47;5064556;28;20051;-79
2023/03/02 08:50:59;;;;;;;9.50;4.77;;;;;;;-0.58;100.00;101909.06;5081030;28;20092;-79
2023/03/02 08:53:28;;;;;;;7.13;3.57;;;;;;;-0.48;100.00;101913.84;5052077;28;20048;-78
2023/03/02 08:55:54;;;;;;;8.40;4.40;;;;;;;-0.62;100.00;101899.34;5043420;28;20078;-79
2023/03/02 08:58:21;;;;;;;10.43;5.37;;;;;;;-0.64;100.00;101896.69;5056287;28;20409;-78
2023/03/02 09:00:48;;;;;;;9.37;4.27;;;;;;;-0.70;100.00;101895.53;5061186;28;20416;-78
2023/03/02 09:03:15;;;;;;;7.00;4.10;;;;;;;-0.70;100.00;101888.63;5043463;28;20402;-78
2023/03/02 09:05:41;;;;;;;6.53;4.30;;;;;;;-0.54;100.00;101886.72;5043706;28;20521;-78
2023/03/02 09:08:08;;;;;;;8.37;4.03;;;;;;;-0.51;100.00;101886.84;5055783;28;20048;-78
2023/03/02 09:10:35;;;;;;;8.53;4.37;;;;;;;-0.55;100.00;101887.53;5073882;28;20043;-79
2023/03/02 09:13:02;;;;;;;8.10;4.23;;;;;;;-0.39;100.00;101885.69;5056308;28;20055;-79
2023/03/02 09:15:29;;;;;;;7.67;3.93;;;;;;;-0.24;100.00;101882.00;5079378;28;20130;-79
2023/03/02 09:17:55;;;;;;;6.40;3.80;;;;;;;-0.23;100.00;101886.34;5046668;28;20450;-78
2023/03/02 09:20:22;;;;;;;7.33;3.50;;;;;;;-0.30;100.00;101888.69;5048395;28;20067;-79
2023/03/02 09:22:49;;;;;;;6.73;3.70;;;;;;;-0.29;100.00;101884.38;5076570;28;20588;-78
2023/03/02 09:25:17;;;;;;;9.10;4.63;;;;;;;-0.12;100.00;101888.56;5061359;28;20039;-79
2023/03/02 09:27:45;;;;;;;8.80;4.27;;;;;;;0.04;100.00;101882.31;5090253;28;20040;-78
2023/03/02 09:30:13;;;;;;;7.00;3.97;;;;;;;0.05;100.00;101891.00;5080109;28;20036;-79
2023/03/02 09:32:40;;;;;;;8.00;4.33;;;;;;;0.04;100.00;101891.81;5058207;28;20090;-80
2023/03/02 09:35:07;;;;;;;8.40;4.20;;;;;;;-0.21;100.00;101900.28;5043403;28;20047;-78
2023/03/02 09:37:36;;;;;;;9.33;4.20;;;;;;;-0.30;100.00;101895.59;5079784;28;20044;-79
2023/03/02 09:40:04;;;;;;;6.50;3.67;;;;;;;-0.28;100.00;101897.41;5081184;28;20122;-79
2023/03/02 09:43:03;;;;;;;7.97;4.43;;;;;;;-0.20;100.00;101891.66;5079331;28;20028;-78
2023/03/02 09:45:46;;;;;;;8.13;4.40;;;;;;;-0.41;100.00;101889.06;5060867;28;20063;-79
2023/03/02 09:48:34;;;;;;;9.77;4.97;;;;;;;-0.12;100.00;101890.28;5057864;28;20076;-79
2023/03/02 09:51:11;;;;;;;8.50;4.53;;;;;;;0.02;100.00;101891.75;5094962;28;20032;-79
2023/03/02 09:53:48;;;;;;;6.20;3.40;;;;;;;-0.08;100.00;101889.59;5081982;28;20689;-79
2023/03/02 09:56:16;;;;;;;7.50;4.50;;;;;;;0.08;100.00;101889.41;5080478;28;20044;-79
2023/03/02 09:58:51;;;;;;;7.00;3.87;;;;;;;0.12;100.00;101885.25;5047535;28;20048;-79
2023/03/02 10:01:36;;;;;;;7.77;4.53;;;;;;;0.23;100.00;101876.16;5044465;28;20106;-79
2023/03/02 10:04:23;;;;;;;;;;;;;;;0.39;100.00;101883.75;5045591;28;20044;-78
2023/03/02 10:07:11;;;;;;;7.27;3.93;;;;;;;0.22;100.00;101880.47;5056458;28;20078;-79
2023/03/02 10:09:38;;;;;;;8.63;4.53;;;;;;;0.24;100.00;101883.13;5057560;28;20071;-79
2023/03/02 10:12:18;;;;;;;7.37;4.27;;;;;;;0.25;100.00;101879.69;5065255;28;20039;-79
2023/03/02 10:14:57;;;;;;;7.80;4.43;;;;;;;0.32;100.00;101873.94;5078526;28;20051;-80
2023/03/02 10:17:36;;;;;;;9.57;3.87;;;;;;;0.50;100.00;101877.25;5070185;28;20432;-80
2023/03/02 10:20:08;;;;;;;7.30;3.97;;;;;;;0.69;100.00;101883.22;5093038;28;20040;-80
2023/03/02 10:22:39;;;;;;;6.90;3.23;;;;;;;0.72;100.00;101873.81;5074001;28;20097;-79
2023/03/02 10:25:34;;;;;;;7.20;3.93;;;;;;;0.81;100.00;101870.66;5058606;28;20101;-79
2023/03/02 10:28:13;;;;;;;9.67;5.20;;;;;;;0.90;100.00;101863.22;5043900;28;20062;-79
2023/03/02 10:30:39;;;;;;;9.63;4.13;;;;;;;0.86;100.00;101863.06;5061635;28;20040;-79
2023/03/02 10:33:15;;;;;;;6.20;3.60;;;;;;;0.77;100.00;101863.59;5078716;28;20051;-79
2023/03/02 10:35:48;;;;;;;8.27;3.80;;;;;;;0.89;100.00;101860.56;5061320;28;20032;-79
2023/03/02 10:38:18;;;;;;;10.53;4.87;;;;;;;0.60;100.00;101864.66;5061092;28;20048;-79
2023/03/02 10:40:58;;;;;;;7.23;3.83;;;;;;;0.90;100.00;101871.00;5076150;28;20493;-79
2023/03/02 10:43:40;;;;;;;5.10;3.03;;;;;;;0.89;100.00;101866.66;5059628;28;20401;-79
2023/03/02 10:46:09;;;;;;;6.23;3.50;;;;;;;0.76;100.00;101874.81;5059493;28;20040;-79
2023/03/02 10:48:50;;;;;;;6.93;3.57;;;;;;;0.71;100.00;101876.34;5098090;28;20036;-79
2023/03/02 10:51:36;;;;;;;14.67;8.40;;;;;;;0.84;100.00;101866.50;5068379;28;20123;-80
2023/03/02 10:54:08;;;;;;;16.10;10.33;;;;;;;0.69;100.00;101868.50;5059876;28;20038;-80
2023/03/02 10:56:35;;;;;;;8.83;4.10;;;;;;;0.80;100.00;101869.78;5069813;28;20032;-80
2023/03/02 10:59:27;;;;;;;5.97;3.67;;;;;;;1.01;100.00;101861.00;5069509;28;20047;-80
2023/03/02 11:02:22;;;;;;;7.27;4.03;;;;;;;0.58;100.00;101869.75;5075006;28;20051;-80
2023/03/02 11:04:56;;;;;;;8.93;6.07;;;;;;;0.59;100.00;101861.16;5048283;28;20050;-80
2023/03/02 11:07:26;;;;;;;8.23;4.67;;;;;;;0.90;100.00;101865.81;5056664;28;20508;-80
2023/03/02 11:10:02;;;;;;;7.43;3.83;;;;;;;0.98;100.00;101858.31;5057322;28;20046;-80
2023/03/02 11:12:30;;;;;;;7.67;3.90;;;;;;;0.79;100.00;101855.00;5062229;28;20040;-80
2023/03/02 11:15:21;;;;;;;7.33;4.13;;;;;;;0.95;100.00;101860.81;5059769;28;20040;-80
2023/03/02 11:17:53;;;;;;;6.83;3.67;;;;;;;0.92;100.00;101860.66;5066037;28;20047;-80
2023/03/02 11:20:24;;;;;;;5.77;3.57;;;;;;;0.75;100.00;101863.50;5046092;28;20040;-80